Effective Sunday, March 17, 2024, the National Weather Service National Data Buoy Center will discontinue its Dial-A-Buoy Interactive Voice Response system. For more information, see Service Change Notice 24-06 (PDF).

Station DPXA2 - Dutch Harbor Pilot Station, AK Image indicating link to RSS feed of recent meteorological observations for station DPXA2


Conditions at DPXA2 as of
(8:14 pm AKST on 03/03/2024)
0514 GMT on 03/04/2024:
     

Click on the graph icon in the table below to see a time series plot of the last five days of that observation.

5-day plot - Wind Direction Wind Direction (WDIR): W ( 270 deg true )
5-day plot - Wind Speed Wind Speed (WSPD): 9 kts
5-day plot - Wind Gust Wind Gust (GST): 12 kts
5-day plot - Air Temperature Air Temperature (ATMP): 39.0 °F
5-day plot - Dew Point Dew Point (DEWP): 28.2 °F
5-day plot - Wind Chill Wind Chill (CHILL): 32.4 °F
5-day plot - Wind Speed at 10 Meters Wind Speed at 10 meters (WSPD10M): 10 kts
5-day plot - Wind Speed at 20 Meters Wind Speed at 20 meters (WSPD20M): 10 kts
5-day plot -  Wind Speed, Wind Gust and Atmospheric Pressure Combined plot of Wind Speed, Gust, and Air Pressure
Previous observations
TIME
(AKST)
5-day plot - Wind Direction
WDIR
 
5-day plot - Wind Speed
WSPD
kts
5-day plot - Wind Gust
GST
kts
5-day plot - Wave Height
WVHT
ft
5-day plot - Dominant Wave Period
DPD
sec
5-day plot - Average Wave Period
APD
sec
5-day plot - Mean Wave Direction
MWD
 
5-day plot - Atmospheric Pressure
PRES
in
5-day plot - Pressure Tendency
PTDY
in
5-day plot - Air Temperature
ATMP
°F
5-day plot - Water Temperature
WTMP
°F
5-day plot - Dew Point
DEWP
°F
5-day plot - Salinity
SAL
psu
5-day plot - Visibility
VIS
nmi
5-day plot - Tide (above MLLW)
TIDE
ft
2024-03-03 08:04 pm SW 9 15------ 39.2- 26.6---
2024-03-03 07:54 pm SW 7 11------ 39.0- 27.7---
2024-03-03 07:44 pmWSW 7 12------ 39.2- 28.6---
2024-03-03 07:34 pmWSW 11 17------ 39.6- 28.0---
2024-03-03 07:24 pm W 12 20------ 39.2- 28.9---
2024-03-03 07:15 pm W 11 18------ 39.4- 29.7---
2024-03-03 07:04 pm W 10 19------ 39.6- 30.4---
2024-03-03 06:54 pmWSW 9 15------ 40.1- 30.2---
2024-03-03 06:44 pmWSW 11 18------ 40.1- 30.4---
2024-03-03 06:34 pm W 14 22------ 39.9- 30.6---
2024-03-03 06:24 pm W 16 22------ 39.9- 30.6---
2024-03-03 06:14 pm W 15 23------ 39.9- 30.4---
2024-03-03 06:04 pm W 15 25------ 40.1- 30.4---
2024-03-03 05:54 pm W 16 27------ 39.9- 31.1---
2024-03-03 05:44 pm W 14 20------ 39.9- 32.0---
2024-03-03 05:34 pm W 16 24------ 40.3- 32.4---
2024-03-03 05:24 pmWSW 14 22------ 41.2- 31.6---
2024-03-03 05:14 pmWSW 15 22------ 41.4- 31.5---
2024-03-03 05:04 pmWSW 10 23------ 41.9- 31.5---
2024-03-03 04:54 pmWSW 8 14------ 41.9- 32.4---
2024-03-03 04:44 pm SW 6 10------ 41.7- 33.1---
2024-03-03 04:34 pm SW 7 11------ 41.2- 33.6---
2024-03-03 04:24 pm SW 9 16------ 41.2- 33.6---
2024-03-03 04:14 pm SW 7 14------ 41.5- 33.4---
2024-03-03 04:04 pmWSW 8 14------ 41.2- 33.4---
2024-03-03 03:54 pm SW 8 15------ 41.7- 33.6---
2024-03-03 03:44 pm SW 8 15------ 41.5- 34.5---
2024-03-03 03:24 pm S 10 18------ 41.5- 35.2---
2024-03-03 03:14 pmSSW 6 16------ 43.0- 35.1---
2024-03-03 02:54 pm SW 7 14------ 43.5- 36.5---
2024-03-03 02:44 pm SW 9 16------ 43.5- 36.7---
2024-03-03 02:34 pm SW 6 13------ 44.2- 37.4---
2024-03-03 02:24 pmESE 2 6------ 44.2- 37.8---
2024-03-03 02:14 pm W 2 6------ 43.9- 37.8---
2024-03-03 02:04 pmSSE 5 10------ 42.8- 37.6---
2024-03-03 01:54 pm SE 5 11------ 42.6- 37.6---
2024-03-03 01:44 pm SE 5 13------ 42.1- 37.4---
2024-03-03 01:34 pm SE 8 14------ 41.5- 36.9---
2024-03-03 01:24 pm SE 8 15------ 41.5- 36.5---
2024-03-03 01:14 pmSSE 7 13------ 41.9- 36.1---
2024-03-03 01:04 pmSSE 6 13------ 41.9- 35.8---
2024-03-03 12:54 pmSSE 5 9------ 42.3- 35.6---
2024-03-03 12:44 pm S 3 7------ 42.8- 36.1---
2024-03-03 12:34 pm S 4 9------ 42.6- 36.3---
2024-03-03 12:24 pm S 7 12------ 42.3- 36.0---
2024-03-03 12:14 pm S 5 11------ 41.4- 36.3---
2024-03-03 12:04 pmSSE 7 16------ 40.3- 35.8---
2024-03-03 11:54 am SE 11 17------ 40.1- 35.6---
2024-03-03 11:44 am SE 12 19------ 39.7- 35.2---
2024-03-03 11:34 am SE 11 17------ 39.4- 34.9---
2024-03-03 11:24 am SE 9 15------ 39.0- 34.5---
2024-03-03 11:14 am SE 6 12------ 38.7- 34.2---
2024-03-03 11:04 am SE 6 11------ 38.3- 33.8---
2024-03-03 10:54 am SE 5 14------ 38.1- 33.8---
2024-03-03 10:44 am SE 10 19------ 37.9- 33.6---
2024-03-03 10:35 am SE 12 19------ 37.8- 33.3---
2024-03-03 10:24 am SE 12 20------ 37.8- 33.1---
2024-03-03 10:14 am SE 11 19------ 37.8- 33.1---
2024-03-03 10:04 am SE 11 20------ 37.6- 33.3---
2024-03-03 09:54 am SE 11 21------ 37.6- 33.3---
2024-03-03 09:44 am SE 12 20------ 37.6- 33.3---
2024-03-03 09:34 am SE 12 20------ 37.4- 33.1---
2024-03-03 09:24 am SE 12 20------ 37.8- 33.1---
2024-03-03 09:14 am SE 13 22------ 37.8- 33.1---
2024-03-03 09:04 am SE 12 20------ 37.6- 33.3---
2024-03-03 08:54 am SE 13 23------ 37.8- 33.1---
2024-03-03 08:44 am SE 14 23------ 37.9- 33.3---
2024-03-03 08:34 am SE 11 20------ 37.9- 33.4---
2024-03-03 08:24 am SE 12 20------ 38.1- 33.4---
2024-03-03 08:14 am SE 12 20------ 38.1- 33.4---
2024-03-03 08:04 am SE 10 19------ 38.1- 33.6---
2024-03-03 07:55 am SE 8 16------ 38.1- 34.0---
2024-03-03 07:54 am SE 8 16------ 38.1- 34.0---
2024-03-03 07:34 amESE 12 19------ 38.3- 34.5---
2024-03-03 07:24 amESE 15 21------ 38.3- 34.5---
2024-03-03 07:14 amESE 15 21------ 38.3- 34.5---
2024-03-03 07:04 amESE 14 20------ 38.5- 34.7---
2024-03-03 06:54 amESE 13 20------ 38.5- 34.7---
2024-03-03 06:44 amESE 14 23------ 38.5- 34.7---
2024-03-03 06:34 amESE 13 20------ 38.7- 34.9---
2024-03-03 06:24 amESE 13 20------ 38.7- 34.5---
2024-03-03 06:14 amESE 10 17------ 38.8- 34.7---
2024-03-03 06:04 amESE 10 15------ 39.4- 34.7---
2024-03-03 05:54 amESE 11 20------ 39.7- 35.1---
2024-03-03 05:44 amESE 14 21------ 39.7- 35.2---
2024-03-03 05:34 amESE 15 23------ 39.9- 35.4---
2024-03-03 05:24 amESE 18 27------ 40.1- 35.6---
2024-03-03 05:14 amESE 17 24------ 40.5- 36.0---
2024-03-03 05:04 amESE 16 27------ 40.5- 36.3---
2024-03-03 04:54 amESE 15 25------ 40.6- 36.5---
2024-03-03 04:44 am SE 13 23------ 40.5- 36.7---
2024-03-03 04:34 amESE 16 24------ 40.5- 36.7---
2024-03-03 04:24 am SE 12 21------ 40.5- 36.7---
2024-03-03 04:14 am SE 11 16------ 40.5- 36.9---
2024-03-03 04:04 amESE 10 16------ 40.3- 37.0---
2024-03-03 03:54 amESE 11 16------ 40.5- 37.2---
2024-03-03 03:44 amESE 8 16------ 40.1- 37.2---
2024-03-03 03:34 am SE 7 12------ 39.7- 37.0---
2024-03-03 03:24 amESE 8 16------ 39.7- 37.0---
2024-03-03 03:14 amESE 10 16------ 39.6- 37.2---
2024-03-03 03:04 amESE 8 14------ 39.2- 36.7---
2024-03-03 02:54 amESE 9 17------ 39.4- 37.0---
2024-03-03 02:44 amESE 10 16------ 39.6- 37.2---
2024-03-03 02:34 amESE 10 17------ 39.2- 36.9---
2024-03-03 02:24 amESE 12 18------ 39.4- 37.0---
2024-03-03 02:14 am SE 8 16------ 39.0- 36.7---
2024-03-03 02:04 am SE 9 16------ 38.8- 36.5---
2024-03-03 01:54 am SE 9 14------ 38.8- 36.7---
2024-03-03 01:44 am SE 11 17------ 38.5- 36.5---
2024-03-03 01:25 amESE 13 18------ 38.7- 36.3---
2024-03-03 01:14 amESE 13 17------ 39.2- 36.5---
2024-03-03 01:04 amESE 11 16------ 39.2- 36.7---
2024-03-03 12:44 amESE 6 11------ 38.8- 36.5---
2024-03-03 12:34 amESE 5 10------ 39.0- 36.7---
2024-03-03 12:24 am SE 9 14------ 38.8- 36.5---
2024-03-03 12:14 amESE 10 15------ 38.7- 36.3---
2024-03-03 12:04 am SE 7 15------ 38.7- 36.1---
2024-03-02 11:54 pmSSE 4 7------ 39.0- 36.5---
2024-03-02 11:44 pm SE 5 8------ 38.7- 36.3---
2024-03-02 11:34 pm SE 5 9------ 38.5- 36.3---
2024-03-02 11:24 pm SE 4 7------ 38.3- 36.1---
2024-03-02 11:14 pm E 3 4------ 38.3- 36.1---
2024-03-02 11:04 pm E 3 4------ 38.5- 36.3---
2024-03-02 10:54 pmENE 3 5------ 38.7- 36.5---
2024-03-02 10:44 pmENE 3 5------ 39.0- 36.7---
2024-03-02 10:34 pm NE 3 4------ 39.4- 36.7---
2024-03-02 10:24 pm E 3 6------ 39.4- 36.7---
2024-03-02 10:14 pm E 3 5------ 39.6- 36.9---
2024-03-02 10:04 pmESE 3 7------ 40.1- 37.2---
2024-03-02 09:54 pm SE 4 8------ 40.1- 37.4---
2024-03-02 09:44 pmESE 5 8------ 39.6- 37.0---
2024-03-02 09:34 pm SE 4 8------ 39.9- 37.2---
2024-03-02 09:24 pm SE 4 7------ 39.7- 37.0---
2024-03-02 09:14 pmESE 4 6------ 39.7- 37.0---
2024-03-02 09:04 pmESE 4 6------ 39.6- 36.9---
2024-03-02 08:54 pm SE 4 7------ 39.7- 36.7---
2024-03-02 08:44 pm SE 5 10------ 40.1- 37.0---
2024-03-02 08:34 pm SE 5 10------ 40.1- 37.0---
2024-03-02 08:24 pm SE 7 12------ 39.9- 36.9---
2024-03-02 08:14 pm SE 5 10------ 39.9- 36.7---
2024-03-02 08:05 pmESE 6 9------ 40.3- 37.0---
2024-03-02 07:54 pmESE 7 9------ 40.5- 36.9---